sensor_id;sensor_type;location;lat;lon;timestamp;P1;durP1;ratioP1;P2;durP2;ratioP2
20181;SDS011;10250;50.756;6.172;2023-12-20T00:00:11;15.43;;;5.23;;
20181;SDS011;10250;50.756;6.172;2023-12-20T00:02:12;17.17;;;5.87;;
20181;SDS011;10250;50.756;6.172;2023-12-20T00:04:13;18.57;;;6.00;;
20181;SDS011;10250;50.756;6.172;2023-12-20T00:06:13;16.90;;;5.70;;
20181;SDS011;10250;50.756;6.172;2023-12-20T00:08:14;17.47;;;6.00;;
20181;SDS011;10250;50.756;6.172;2023-12-20T00:10:14;15.50;;;5.40;;
20181;SDS011;10250;50.756;6.172;2023-12-20T00:12:15;16.87;;;5.73;;
20181;SDS011;10250;50.756;6.172;2023-12-20T00:14:15;17.10;;;5.63;;
20181;SDS011;10250;50.756;6.172;2023-12-20T00:16:16;17.03;;;5.70;;
20181;SDS011;10250;50.756;6.172;2023-12-20T00:18:17;17.07;;;5.93;;
20181;SDS011;10250;50.756;6.172;2023-12-20T00:20:17;16.77;;;5.77;;
20181;SDS011;10250;50.756;6.172;2023-12-20T00:22:18;17.90;;;6.00;;
20181;SDS011;10250;50.756;6.172;2023-12-20T00:24:18;14.60;;;4.20;;
20181;SDS011;10250;50.756;6.172;2023-12-20T00:26:19;13.23;;;4.20;;
20181;SDS011;10250;50.756;6.172;2023-12-20T00:28:20;13.73;;;3.93;;
20181;SDS011;10250;50.756;6.172;2023-12-20T00:30:20;12.40;;;2.90;;
20181;SDS011;10250;50.756;6.172;2023-12-20T00:32:21;12.27;;;3.27;;
20181;SDS011;10250;50.756;6.172;2023-12-20T00:34:21;14.27;;;3.40;;
20181;SDS011;10250;50.756;6.172;2023-12-20T00:36:22;12.07;;;3.40;;
20181;SDS011;10250;50.756;6.172;2023-12-20T00:38:22;14.60;;;3.80;;
20181;SDS011;10250;50.756;6.172;2023-12-20T00:40:23;17.37;;;4.17;;
20181;SDS011;10250;50.756;6.172;2023-12-20T00:42:24;15.10;;;4.33;;
20181;SDS011;10250;50.756;6.172;2023-12-20T00:44:24;15.67;;;4.70;;
20181;SDS011;10250;50.756;6.172;2023-12-20T00:46:25;16.10;;;5.03;;
20181;SDS011;10250;50.756;6.172;2023-12-20T00:48:25;17.60;;;5.97;;
20181;SDS011;10250;50.756;6.172;2023-12-20T00:50:31;17.27;;;6.57;;
20181;SDS011;10250;50.756;6.172;2023-12-20T00:52:31;19.60;;;7.37;;
20181;SDS011;10250;50.756;6.172;2023-12-20T00:54:32;19.23;;;6.80;;
20181;SDS011;10250;50.756;6.172;2023-12-20T00:56:32;16.93;;;6.50;;
20181;SDS011;10250;50.756;6.172;2023-12-20T00:58:33;20.70;;;6.67;;
20181;SDS011;10250;50.756;6.172;2023-12-20T01:00:33;21.70;;;7.27;;
20181;SDS011;10250;50.756;6.172;2023-12-20T01:02:34;17.73;;;6.33;;
20181;SDS011;10250;50.756;6.172;2023-12-20T01:04:35;19.27;;;4.90;;
20181;SDS011;10250;50.756;6.172;2023-12-20T01:06:35;14.70;;;4.33;;
20181;SDS011;10250;50.756;6.172;2023-12-20T01:08:37;16.47;;;4.47;;
20181;SDS011;10250;50.756;6.172;2023-12-20T01:10:37;16.27;;;4.13;;
20181;SDS011;10250;50.756;6.172;2023-12-20T01:12:38;19.30;;;4.33;;
20181;SDS011;10250;50.756;6.172;2023-12-20T01:14:39;19.60;;;3.97;;
20181;SDS011;10250;50.756;6.172;2023-12-20T01:16:39;12.20;;;3.47;;
20181;SDS011;10250;50.756;6.172;2023-12-20T01:18:40;16.57;;;3.83;;
20181;SDS011;10250;50.756;6.172;2023-12-20T01:20:40;15.63;;;3.10;;
20181;SDS011;10250;50.756;6.172;2023-12-20T01:22:41;16.13;;;3.33;;
20181;SDS011;10250;50.756;6.172;2023-12-20T01:24:42;12.70;;;2.70;;
20181;SDS011;10250;50.756;6.172;2023-12-20T01:26:43;14.60;;;2.80;;
20181;SDS011;10250;50.756;6.172;2023-12-20T01:28:43;12.63;;;2.30;;
20181;SDS011;10250;50.756;6.172;2023-12-20T01:30:44;21.77;;;3.20;;
20181;SDS011;10250;50.756;6.172;2023-12-20T01:32:45;12.37;;;2.40;;
20181;SDS011;10250;50.756;6.172;2023-12-20T01:34:45;18.60;;;2.77;;
20181;SDS011;10250;50.756;6.172;2023-12-20T01:36:46;15.87;;;2.70;;
20181;SDS011;10250;50.756;6.172;2023-12-20T01:38:46;16.00;;;2.70;;
20181;SDS011;10250;50.756;6.172;2023-12-20T01:40:47;10.63;;;2.37;;
20181;SDS011;10250;50.756;6.172;2023-12-20T01:42:57;15.97;;;2.87;;
20181;SDS011;10250;50.756;6.172;2023-12-20T01:44:59;12.40;;;2.80;;
20181;SDS011;10250;50.756;6.172;2023-12-20T01:46:59;10.73;;;2.50;;
20181;SDS011;10250;50.756;6.172;2023-12-20T01:49:00;14.03;;;3.03;;
20181;SDS011;10250;50.756;6.172;2023-12-20T01:51:01;12.10;;;3.00;;
20181;SDS011;10250;50.756;6.172;2023-12-20T01:53:02;17.57;;;3.10;;
20181;SDS011;10250;50.756;6.172;2023-12-20T01:55:05;10.57;;;2.60;;
20181;SDS011;10250;50.756;6.172;2023-12-20T01:57:13;13.60;;;2.77;;
20181;SDS011;10250;50.756;6.172;2023-12-20T01:59:13;14.20;;;2.83;;
20181;SDS011;10250;50.756;6.172;2023-12-20T02:01:14;14.90;;;2.77;;
20181;SDS011;10250;50.756;6.172;2023-12-20T02:03:15;13.40;;;2.70;;
20181;SDS011;10250;50.756;6.172;2023-12-20T02:05:18;13.47;;;2.57;;
20181;SDS011;10250;50.756;6.172;2023-12-20T02:07:18;14.13;;;2.60;;
20181;SDS011;10250;50.756;6.172;2023-12-20T02:09:20;14.87;;;2.50;;
20181;SDS011;10250;50.756;6.172;2023-12-20T02:11:22;14.23;;;2.90;;
20181;SDS011;10250;50.756;6.172;2023-12-20T02:13:23;19.83;;;3.40;;
20181;SDS011;10250;50.756;6.172;2023-12-20T02:15:23;13.20;;;2.70;;
20181;SDS011;10250;50.756;6.172;2023-12-20T02:17:24;13.60;;;2.77;;
20181;SDS011;10250;50.756;6.172;2023-12-20T02:19:25;10.47;;;2.47;;
20181;SDS011;10250;50.756;6.172;2023-12-20T02:21:32;14.90;;;3.03;;
20181;SDS011;10250;50.756;6.172;2023-12-20T02:23:34;17.47;;;3.20;;
20181;SDS011;10250;50.756;6.172;2023-12-20T02:25:35;17.83;;;3.10;;
20181;SDS011;10250;50.756;6.172;2023-12-20T02:27:36;15.30;;;3.03;;
20181;SDS011;10250;50.756;6.172;2023-12-20T02:29:37;18.63;;;3.73;;
20181;SDS011;10250;50.756;6.172;2023-12-20T02:31:37;17.27;;;3.57;;
20181;SDS011;10250;50.756;6.172;2023-12-20T02:33:38;13.47;;;3.43;;
20181;SDS011;10250;50.756;6.172;2023-12-20T02:35:39;17.17;;;3.40;;
20181;SDS011;10250;50.756;6.172;2023-12-20T02:37:40;20.10;;;4.10;;
20181;SDS011;10250;50.756;6.172;2023-12-20T02:39:40;20.10;;;4.67;;
20181;SDS011;10250;50.756;6.172;2023-12-20T02:41:41;14.90;;;3.90;;
20181;SDS011;10250;50.756;6.172;2023-12-20T02:43:41;15.53;;;4.43;;
20181;SDS011;10250;50.756;6.172;2023-12-20T02:45:42;21.37;;;4.13;;
20181;SDS011;10250;50.756;6.172;2023-12-20T02:47:43;21.63;;;4.80;;
20181;SDS011;10250;50.756;6.172;2023-12-20T02:49:43;17.47;;;4.40;;
20181;SDS011;10250;50.756;6.172;2023-12-20T02:51:44;14.97;;;4.20;;
20181;SDS011;10250;50.756;6.172;2023-12-20T02:53:44;17.43;;;3.80;;
20181;SDS011;10250;50.756;6.172;2023-12-20T02:55:45;18.67;;;3.93;;
20181;SDS011;10250;50.756;6.172;2023-12-20T02:57:45;19.27;;;4.43;;
20181;SDS011;10250;50.756;6.172;2023-12-20T02:59:46;17.70;;;4.10;;
20181;SDS011;10250;50.756;6.172;2023-12-20T03:01:46;20.17;;;4.30;;
20181;SDS011;10250;50.756;6.172;2023-12-20T03:03:47;21.07;;;4.23;;
20181;SDS011;10250;50.756;6.172;2023-12-20T03:05:47;18.17;;;4.07;;
20181;SDS011;10250;50.756;6.172;2023-12-20T03:07:48;15.80;;;3.77;;
20181;SDS011;10250;50.756;6.172;2023-12-20T03:09:48;17.10;;;3.80;;
20181;SDS011;10250;50.756;6.172;2023-12-20T03:11:49;18.90;;;4.50;;
20181;SDS011;10250;50.756;6.172;2023-12-20T03:13:50;15.50;;;3.93;;
20181;SDS011;10250;50.756;6.172;2023-12-20T03:15:50;16.30;;;4.00;;
20181;SDS011;10250;50.756;6.172;2023-12-20T03:17:51;20.10;;;4.40;;
20181;SDS011;10250;50.756;6.172;2023-12-20T03:19:51;23.77;;;4.17;;
20181;SDS011;10250;50.756;6.172;2023-12-20T03:21:52;16.90;;;4.30;;
20181;SDS011;10250;50.756;6.172;2023-12-20T03:23:53;17.83;;;4.33;;
20181;SDS011;10250;50.756;6.172;2023-12-20T03:25:54;14.73;;;3.60;;
20181;SDS011;10250;50.756;6.172;2023-12-20T03:27:54;15.03;;;3.77;;
20181;SDS011;10250;50.756;6.172;2023-12-20T03:29:55;21.87;;;4.53;;
20181;SDS011;10250;50.756;6.172;2023-12-20T03:31:56;16.37;;;4.50;;
20181;SDS011;10250;50.756;6.172;2023-12-20T03:33:56;16.63;;;4.43;;
20181;SDS011;10250;50.756;6.172;2023-12-20T03:35:57;16.73;;;3.60;;
20181;SDS011;10250;50.756;6.172;2023-12-20T03:37:57;16.67;;;4.07;;
20181;SDS011;10250;50.756;6.172;2023-12-20T03:40:00;22.30;;;5.20;;
20181;SDS011;10250;50.756;6.172;2023-12-20T03:42:00;18.80;;;4.20;;
20181;SDS011;10250;50.756;6.172;2023-12-20T03:44:01;16.23;;;3.93;;
20181;SDS011;10250;50.756;6.172;2023-12-20T03:46:02;15.20;;;3.87;;
20181;SDS011;10250;50.756;6.172;2023-12-20T03:48:04;20.80;;;4.13;;
20181;SDS011;10250;50.756;6.172;2023-12-20T03:50:05;18.37;;;4.03;;
20181;SDS011;10250;50.756;6.172;2023-12-20T03:52:06;19.83;;;5.07;;
20181;SDS011;10250;50.756;6.172;2023-12-20T03:54:07;19.70;;;5.07;;
20181;SDS011;10250;50.756;6.172;2023-12-20T03:56:08;16.73;;;4.17;;
20181;SDS011;10250;50.756;6.172;2023-12-20T03:58:08;16.67;;;4.70;;
20181;SDS011;10250;50.756;6.172;2023-12-20T04:00:09;17.90;;;4.27;;
20181;SDS011;10250;50.756;6.172;2023-12-20T04:02:10;20.90;;;5.13;;
20181;SDS011;10250;50.756;6.172;2023-12-20T04:04:11;23.50;;;4.50;;
20181;SDS011;10250;50.756;6.172;2023-12-20T04:06:19;19.30;;;4.17;;
20181;SDS011;10250;50.756;6.172;2023-12-20T04:08:20;19.40;;;4.03;;
20181;SDS011;10250;50.756;6.172;2023-12-20T04:10:20;19.13;;;4.57;;
20181;SDS011;10250;50.756;6.172;2023-12-20T04:12:21;16.60;;;4.17;;
20181;SDS011;10250;50.756;6.172;2023-12-20T04:14:22;15.60;;;4.03;;
20181;SDS011;10250;50.756;6.172;2023-12-20T04:16:22;20.53;;;4.23;;
20181;SDS011;10250;50.756;6.172;2023-12-20T04:18:23;17.93;;;3.60;;
20181;SDS011;10250;50.756;6.172;2023-12-20T04:20:23;20.70;;;4.60;;
20181;SDS011;10250;50.756;6.172;2023-12-20T04:22:24;16.27;;;4.10;;
20181;SDS011;10250;50.756;6.172;2023-12-20T04:24:24;20.07;;;4.60;;
20181;SDS011;10250;50.756;6.172;2023-12-20T04:26:25;16.83;;;3.93;;
20181;SDS011;10250;50.756;6.172;2023-12-20T04:28:25;16.73;;;4.37;;
20181;SDS011;10250;50.756;6.172;2023-12-20T04:30:26;15.87;;;3.83;;
20181;SDS011;10250;50.756;6.172;2023-12-20T04:32:27;17.30;;;4.13;;
20181;SDS011;10250;50.756;6.172;2023-12-20T04:34:27;16.87;;;3.80;;
20181;SDS011;10250;50.756;6.172;2023-12-20T04:36:28;20.43;;;3.40;;
20181;SDS011;10250;50.756;6.172;2023-12-20T04:38:30;16.90;;;3.40;;
20181;SDS011;10250;50.756;6.172;2023-12-20T04:40:30;12.80;;;3.17;;
20181;SDS011;10250;50.756;6.172;2023-12-20T04:42:31;16.90;;;3.23;;
20181;SDS011;10250;50.756;6.172;2023-12-20T04:44:31;14.43;;;3.17;;
20181;SDS011;10250;50.756;6.172;2023-12-20T04:46:32;18.23;;;3.43;;
20181;SDS011;10250;50.756;6.172;2023-12-20T04:48:33;19.90;;;3.43;;
20181;SDS011;10250;50.756;6.172;2023-12-20T04:50:33;19.80;;;4.10;;
20181;SDS011;10250;50.756;6.172;2023-12-20T04:52:34;19.37;;;3.87;;
20181;SDS011;10250;50.756;6.172;2023-12-20T04:54:34;14.27;;;3.20;;
20181;SDS011;10250;50.756;6.172;2023-12-20T04:56:35;17.37;;;3.50;;
20181;SDS011;10250;50.756;6.172;2023-12-20T04:58:35;24.60;;;3.67;;
20181;SDS011;10250;50.756;6.172;2023-12-20T05:00:36;23.30;;;3.77;;
20181;SDS011;10250;50.756;6.172;2023-12-20T05:02:37;16.03;;;3.60;;
20181;SDS011;10250;50.756;6.172;2023-12-20T05:04:37;14.63;;;3.60;;
20181;SDS011;10250;50.756;6.172;2023-12-20T05:06:38;16.30;;;3.00;;
20181;SDS011;10250;50.756;6.172;2023-12-20T05:08:38;16.10;;;3.30;;
20181;SDS011;10250;50.756;6.172;2023-12-20T05:10:39;17.93;;;3.20;;
20181;SDS011;10250;50.756;6.172;2023-12-20T05:12:40;13.27;;;3.30;;
20181;SDS011;10250;50.756;6.172;2023-12-20T05:14:40;14.13;;;3.30;;
20181;SDS011;10250;50.756;6.172;2023-12-20T05:16:41;16.13;;;3.37;;
20181;SDS011;10250;50.756;6.172;2023-12-20T05:18:41;15.23;;;3.30;;
20181;SDS011;10250;50.756;6.172;2023-12-20T05:20:42;15.67;;;3.53;;
20181;SDS011;10250;50.756;6.172;2023-12-20T05:22:43;19.93;;;3.70;;
20181;SDS011;10250;50.756;6.172;2023-12-20T05:24:45;14.33;;;3.80;;
20181;SDS011;10250;50.756;6.172;2023-12-20T05:26:45;20.57;;;3.53;;
20181;SDS011;10250;50.756;6.172;2023-12-20T05:28:46;18.80;;;3.83;;
20181;SDS011;10250;50.756;6.172;2023-12-20T05:30:46;18.53;;;3.70;;
20181;SDS011;10250;50.756;6.172;2023-12-20T05:32:47;15.53;;;3.37;;
20181;SDS011;10250;50.756;6.172;2023-12-20T05:34:48;16.37;;;3.37;;
20181;SDS011;10250;50.756;6.172;2023-12-20T05:36:48;19.70;;;3.93;;
20181;SDS011;10250;50.756;6.172;2023-12-20T05:38:49;17.67;;;3.60;;
20181;SDS011;10250;50.756;6.172;2023-12-20T05:40:49;16.10;;;3.60;;
20181;SDS011;10250;50.756;6.172;2023-12-20T05:42:50;18.67;;;3.80;;
20181;SDS011;10250;50.756;6.172;2023-12-20T05:44:50;13.80;;;3.40;;
20181;SDS011;10250;50.756;6.172;2023-12-20T05:46:51;16.90;;;3.33;;
20181;SDS011;10250;50.756;6.172;2023-12-20T05:48:51;21.23;;;4.17;;
20181;SDS011;10250;50.756;6.172;2023-12-20T05:50:52;16.30;;;3.70;;
20181;SDS011;10250;50.756;6.172;2023-12-20T05:52:53;18.57;;;3.73;;
20181;SDS011;10250;50.756;6.172;2023-12-20T05:54:53;16.13;;;3.53;;
20181;SDS011;10250;50.756;6.172;2023-12-20T05:56:55;22.40;;;4.40;;
20181;SDS011;10250;50.756;6.172;2023-12-20T05:58:56;14.80;;;3.40;;
20181;SDS011;10250;50.756;6.172;2023-12-20T06:00:57;19.73;;;4.03;;
20181;SDS011;10250;50.756;6.172;2023-12-20T06:02:57;17.47;;;3.60;;
20181;SDS011;10250;50.756;6.172;2023-12-20T06:04:58;16.87;;;3.93;;
20181;SDS011;10250;50.756;6.172;2023-12-20T06:06:59;20.80;;;4.17;;
20181;SDS011;10250;50.756;6.172;2023-12-20T06:08:59;14.03;;;3.50;;
20181;SDS011;10250;50.756;6.172;2023-12-20T06:11:00;16.27;;;3.80;;
20181;SDS011;10250;50.756;6.172;2023-12-20T06:13:00;20.13;;;3.97;;
20181;SDS011;10250;50.756;6.172;2023-12-20T06:15:01;19.23;;;4.77;;
20181;SDS011;10250;50.756;6.172;2023-12-20T06:17:02;20.30;;;4.33;;
20181;SDS011;10250;50.756;6.172;2023-12-20T06:19:03;16.77;;;3.50;;
20181;SDS011;10250;50.756;6.172;2023-12-20T06:21:04;19.67;;;4.90;;
20181;SDS011;10250;50.756;6.172;2023-12-20T06:23:04;19.20;;;4.10;;
20181;SDS011;10250;50.756;6.172;2023-12-20T06:25:05;16.30;;;4.17;;
20181;SDS011;10250;50.756;6.172;2023-12-20T06:27:06;17.83;;;4.13;;
20181;SDS011;10250;50.756;6.172;2023-12-20T06:29:07;18.40;;;3.53;;
20181;SDS011;10250;50.756;6.172;2023-12-20T06:31:08;18.50;;;4.00;;
20181;SDS011;10250;50.756;6.172;2023-12-20T06:33:09;19.13;;;3.70;;
20181;SDS011;10250;50.756;6.172;2023-12-20T06:35:11;19.93;;;4.03;;
20181;SDS011;10250;50.756;6.172;2023-12-20T06:37:11;18.30;;;3.83;;
20181;SDS011;10250;50.756;6.172;2023-12-20T06:39:12;23.07;;;3.97;;
20181;SDS011;10250;50.756;6.172;2023-12-20T06:41:14;19.60;;;4.00;;
20181;SDS011;10250;50.756;6.172;2023-12-20T06:43:16;23.80;;;3.97;;
20181;SDS011;10250;50.756;6.172;2023-12-20T06:45:17;15.23;;;3.50;;
20181;SDS011;10250;50.756;6.172;2023-12-20T06:47:17;17.47;;;3.87;;
20181;SDS011;10250;50.756;6.172;2023-12-20T06:49:18;22.27;;;4.37;;
20181;SDS011;10250;50.756;6.172;2023-12-20T06:51:18;17.07;;;3.50;;
20181;SDS011;10250;50.756;6.172;2023-12-20T06:53:20;19.40;;;4.47;;
20181;SDS011;10250;50.756;6.172;2023-12-20T06:55:20;17.63;;;4.40;;
20181;SDS011;10250;50.756;6.172;2023-12-20T06:57:21;19.10;;;4.20;;
20181;SDS011;10250;50.756;6.172;2023-12-20T06:59:21;22.73;;;4.53;;
20181;SDS011;10250;50.756;6.172;2023-12-20T07:01:22;16.20;;;4.60;;
20181;SDS011;10250;50.756;6.172;2023-12-20T07:03:23;21.10;;;4.50;;
20181;SDS011;10250;50.756;6.172;2023-12-20T07:05:23;25.07;;;4.73;;
20181;SDS011;10250;50.756;6.172;2023-12-20T07:07:24;19.00;;;5.00;;
20181;SDS011;10250;50.756;6.172;2023-12-20T07:09:25;16.10;;;4.67;;
20181;SDS011;10250;50.756;6.172;2023-12-20T07:11:26;26.03;;;5.33;;
20181;SDS011;10250;50.756;6.172;2023-12-20T07:13:27;15.70;;;4.40;;
20181;SDS011;10250;50.756;6.172;2023-12-20T07:15:27;22.67;;;4.70;;
20181;SDS011;10250;50.756;6.172;2023-12-20T07:17:29;17.70;;;5.47;;
20181;SDS011;10250;50.756;6.172;2023-12-20T07:19:30;23.03;;;4.93;;
20181;SDS011;10250;50.756;6.172;2023-12-20T07:21:30;17.70;;;4.63;;
20181;SDS011;10250;50.756;6.172;2023-12-20T07:23:31;24.23;;;4.47;;
20181;SDS011;10250;50.756;6.172;2023-12-20T07:25:31;19.83;;;4.67;;
20181;SDS011;10250;50.756;6.172;2023-12-20T07:27:32;20.97;;;4.70;;
20181;SDS011;10250;50.756;6.172;2023-12-20T07:29:33;20.67;;;4.43;;
20181;SDS011;10250;50.756;6.172;2023-12-20T07:31:33;19.43;;;5.00;;
20181;SDS011;10250;50.756;6.172;2023-12-20T07:33:34;23.43;;;5.10;;
20181;SDS011;10250;50.756;6.172;2023-12-20T07:35:35;22.90;;;5.30;;
20181;SDS011;10250;50.756;6.172;2023-12-20T07:37:36;20.10;;;5.03;;
20181;SDS011;10250;50.756;6.172;2023-12-20T07:39:37;14.70;;;4.53;;
20181;SDS011;10250;50.756;6.172;2023-12-20T07:41:37;21.33;;;4.97;;
20181;SDS011;10250;50.756;6.172;2023-12-20T07:43:38;21.17;;;4.97;;
20181;SDS011;10250;50.756;6.172;2023-12-20T07:45:39;19.53;;;5.33;;
20181;SDS011;10250;50.756;6.172;2023-12-20T07:47:39;25.70;;;5.37;;
20181;SDS011;10250;50.756;6.172;2023-12-20T07:49:40;22.57;;;5.20;;
20181;SDS011;10250;50.756;6.172;2023-12-20T07:51:41;22.40;;;5.40;;
20181;SDS011;10250;50.756;6.172;2023-12-20T07:53:42;18.87;;;5.33;;
20181;SDS011;10250;50.756;6.172;2023-12-20T07:55:42;19.13;;;4.27;;
20181;SDS011;10250;50.756;6.172;2023-12-20T07:57:43;21.07;;;4.67;;
20181;SDS011;10250;50.756;6.172;2023-12-20T07:59:43;16.77;;;5.10;;
20181;SDS011;10250;50.756;6.172;2023-12-20T08:01:44;20.93;;;5.50;;
20181;SDS011;10250;50.756;6.172;2023-12-20T08:03:45;20.97;;;4.70;;
20181;SDS011;10250;50.756;6.172;2023-12-20T08:05:46;19.07;;;5.17;;
20181;SDS011;10250;50.756;6.172;2023-12-20T08:07:47;19.57;;;4.40;;
20181;SDS011;10250;50.756;6.172;2023-12-20T08:09:48;19.03;;;4.77;;
20181;SDS011;10250;50.756;6.172;2023-12-20T08:11:48;20.17;;;5.07;;
20181;SDS011;10250;50.756;6.172;2023-12-20T08:13:49;15.37;;;4.17;;
20181;SDS011;10250;50.756;6.172;2023-12-20T08:15:50;18.97;;;3.80;;
20181;SDS011;10250;50.756;6.172;2023-12-20T08:17:50;21.30;;;4.63;;
20181;SDS011;10250;50.756;6.172;2023-12-20T08:19:51;21.27;;;4.87;;
20181;SDS011;10250;50.756;6.172;2023-12-20T08:21:52;17.23;;;5.03;;
20181;SDS011;10250;50.756;6.172;2023-12-20T08:23:52;23.30;;;4.73;;
20181;SDS011;10250;50.756;6.172;2023-12-20T08:25:53;21.93;;;4.33;;
20181;SDS011;10250;50.756;6.172;2023-12-20T08:27:53;19.00;;;4.47;;
20181;SDS011;10250;50.756;6.172;2023-12-20T08:29:54;22.80;;;4.80;;
20181;SDS011;10250;50.756;6.172;2023-12-20T08:31:55;16.93;;;4.40;;
20181;SDS011;10250;50.756;6.172;2023-12-20T08:33:55;21.77;;;5.10;;
20181;SDS011;10250;50.756;6.172;2023-12-20T08:35:56;19.07;;;4.27;;
20181;SDS011;10250;50.756;6.172;2023-12-20T08:37:57;19.33;;;4.03;;
20181;SDS011;10250;50.756;6.172;2023-12-20T08:39:58;20.40;;;3.93;;
20181;SDS011;10250;50.756;6.172;2023-12-20T08:41:59;17.63;;;4.40;;
20181;SDS011;10250;50.756;6.172;2023-12-20T08:43:59;21.73;;;4.10;;
20181;SDS011;10250;50.756;6.172;2023-12-20T08:46:03;16.77;;;3.73;;
20181;SDS011;10250;50.756;6.172;2023-12-20T08:48:04;18.47;;;3.67;;
20181;SDS011;10250;50.756;6.172;2023-12-20T08:50:05;14.63;;;4.10;;
20181;SDS011;10250;50.756;6.172;2023-12-20T08:52:06;18.87;;;3.97;;
20181;SDS011;10250;50.756;6.172;2023-12-20T08:54:06;17.53;;;4.47;;
20181;SDS011;10250;50.756;6.172;2023-12-20T08:56:10;20.97;;;4.33;;
20181;SDS011;10250;50.756;6.172;2023-12-20T08:58:11;22.17;;;4.17;;
20181;SDS011;10250;50.756;6.172;2023-12-20T09:00:11;18.20;;;3.83;;
20181;SDS011;10250;50.756;6.172;2023-12-20T09:02:13;21.20;;;4.23;;
20181;SDS011;10250;50.756;6.172;2023-12-20T09:04:14;18.43;;;4.00;;
20181;SDS011;10250;50.756;6.172;2023-12-20T09:06:15;18.13;;;3.73;;
20181;SDS011;10250;50.756;6.172;2023-12-20T09:08:15;17.93;;;3.90;;
20181;SDS011;10250;50.756;6.172;2023-12-20T09:10:16;20.43;;;3.63;;
20181;SDS011;10250;50.756;6.172;2023-12-20T09:12:21;18.93;;;4.10;;
20181;SDS011;10250;50.756;6.172;2023-12-20T09:14:22;18.07;;;3.57;;
20181;SDS011;10250;50.756;6.172;2023-12-20T09:16:23;19.00;;;3.90;;
20181;SDS011;10250;50.756;6.172;2023-12-20T09:18:23;17.20;;;3.60;;
20181;SDS011;10250;50.756;6.172;2023-12-20T09:20:24;16.33;;;3.40;;
20181;SDS011;10250;50.756;6.172;2023-12-20T09:22:25;17.10;;;3.87;;
20181;SDS011;10250;50.756;6.172;2023-12-20T09:24:25;15.30;;;3.33;;
20181;SDS011;10250;50.756;6.172;2023-12-20T09:26:26;14.83;;;3.30;;
20181;SDS011;10250;50.756;6.172;2023-12-20T09:28:27;18.27;;;3.20;;
20181;SDS011;10250;50.756;6.172;2023-12-20T09:30:27;20.03;;;3.93;;
20181;SDS011;10250;50.756;6.172;2023-12-20T09:32:29;13.87;;;3.23;;
20181;SDS011;10250;50.756;6.172;2023-12-20T09:34:29;13.40;;;2.90;;
20181;SDS011;10250;50.756;6.172;2023-12-20T09:36:30;25.67;;;4.07;;
20181;SDS011;10250;50.756;6.172;2023-12-20T09:38:34;18.53;;;3.57;;
20181;SDS011;10250;50.756;6.172;2023-12-20T09:40:35;15.77;;;4.03;;
20181;SDS011;10250;50.756;6.172;2023-12-20T09:44:58;21.97;;;4.00;;
20181;SDS011;10250;50.756;6.172;2023-12-20T09:47:03;16.10;;;3.47;;
20181;SDS011;10250;50.756;6.172;2023-12-20T09:49:05;16.70;;;3.97;;
20181;SDS011;10250;50.756;6.172;2023-12-20T09:51:06;18.00;;;4.00;;
20181;SDS011;10250;50.756;6.172;2023-12-20T09:53:07;16.87;;;3.47;;
20181;SDS011;10250;50.756;6.172;2023-12-20T09:55:09;22.20;;;4.10;;
20181;SDS011;10250;50.756;6.172;2023-12-20T09:57:10;16.43;;;4.30;;
20181;SDS011;10250;50.756;6.172;2023-12-20T09:59:11;18.77;;;3.67;;
20181;SDS011;10250;50.756;6.172;2023-12-20T10:01:11;19.47;;;4.40;;
20181;SDS011;10250;50.756;6.172;2023-12-20T10:03:12;17.53;;;4.23;;
20181;SDS011;10250;50.756;6.172;2023-12-20T10:05:16;19.60;;;4.33;;
20181;SDS011;10250;50.756;6.172;2023-12-20T10:07:20;17.07;;;3.53;;
20181;SDS011;10250;50.756;6.172;2023-12-20T10:09:22;15.47;;;3.57;;
20181;SDS011;10250;50.756;6.172;2023-12-20T10:11:24;12.77;;;2.67;;
20181;SDS011;10250;50.756;6.172;2023-12-20T10:13:25;16.33;;;3.83;;
20181;SDS011;10250;50.756;6.172;2023-12-20T10:15:26;20.30;;;3.20;;
20181;SDS011;10250;50.756;6.172;2023-12-20T10:17:27;20.20;;;3.40;;
20181;SDS011;10250;50.756;6.172;2023-12-20T10:19:29;15.67;;;3.50;;
20181;SDS011;10250;50.756;6.172;2023-12-20T10:21:30;17.20;;;3.27;;
20181;SDS011;10250;50.756;6.172;2023-12-20T10:23:30;18.73;;;3.27;;
20181;SDS011;10250;50.756;6.172;2023-12-20T10:25:31;15.60;;;4.33;;
20181;SDS011;10250;50.756;6.172;2023-12-20T10:27:32;14.57;;;3.00;;
20181;SDS011;10250;50.756;6.172;2023-12-20T10:29:37;15.73;;;3.37;;
20181;SDS011;10250;50.756;6.172;2023-12-20T10:31:38;14.93;;;3.23;;
20181;SDS011;10250;50.756;6.172;2023-12-20T10:33:40;24.97;;;3.67;;
20181;SDS011;10250;50.756;6.172;2023-12-20T10:35:40;17.07;;;3.30;;
20181;SDS011;10250;50.756;6.172;2023-12-20T10:37:41;15.10;;;3.57;;
20181;SDS011;10250;50.756;6.172;2023-12-20T10:39:42;14.30;;;3.20;;
20181;SDS011;10250;50.756;6.172;2023-12-20T10:41:43;16.70;;;3.47;;
20181;SDS011;10250;50.756;6.172;2023-12-20T10:43:45;19.50;;;3.57;;
20181;SDS011;10250;50.756;6.172;2023-12-20T10:45:47;16.47;;;3.80;;
20181;SDS011;10250;50.756;6.172;2023-12-20T10:47:47;18.30;;;4.07;;
20181;SDS011;10250;50.756;6.172;2023-12-20T10:49:50;13.87;;;3.40;;
20181;SDS011;10250;50.756;6.172;2023-12-20T10:51:53;16.37;;;3.07;;
20181;SDS011;10250;50.756;6.172;2023-12-20T10:53:57;16.77;;;3.53;;
20181;SDS011;10250;50.756;6.172;2023-12-20T10:55:57;16.67;;;3.23;;
20181;SDS011;10250;50.756;6.172;2023-12-20T10:58:11;16.97;;;3.63;;
20181;SDS011;10250;50.756;6.172;2023-12-20T11:00:14;15.03;;;3.30;;
20181;SDS011;10250;50.756;6.172;2023-12-20T11:02:17;15.40;;;3.43;;
20181;SDS011;10250;50.756;6.172;2023-12-20T11:04:19;18.00;;;3.23;;
20181;SDS011;10250;50.756;6.172;2023-12-20T11:10:51;20.57;;;3.23;;
20181;SDS011;10250;50.756;6.172;2023-12-20T11:13:16;14.20;;;3.13;;
20181;SDS011;10250;50.756;6.172;2023-12-20T11:15:22;17.40;;;3.70;;
20181;SDS011;10250;50.756;6.172;2023-12-20T11:17:24;18.23;;;3.27;;
20181;SDS011;10250;50.756;6.172;2023-12-20T11:19:27;17.83;;;3.40;;
20181;SDS011;10250;50.756;6.172;2023-12-20T11:21:28;11.03;;;2.70;;
20181;SDS011;10250;50.756;6.172;2023-12-20T11:23:30;21.57;;;3.47;;
20181;SDS011;10250;50.756;6.172;2023-12-20T11:25:45;24.00;;;3.60;;
20181;SDS011;10250;50.756;6.172;2023-12-20T11:30:08;15.23;;;3.10;;
20181;SDS011;10250;50.756;6.172;2023-12-20T11:34:31;13.73;;;2.90;;
20181;SDS011;10250;50.756;6.172;2023-12-20T11:36:33;19.27;;;3.03;;
20181;SDS011;10250;50.756;6.172;2023-12-20T11:38:36;17.93;;;3.63;;
20181;SDS011;10250;50.756;6.172;2023-12-20T11:40:37;15.33;;;3.17;;
20181;SDS011;10250;50.756;6.172;2023-12-20T11:42:40;18.67;;;3.03;;
20181;SDS011;10250;50.756;6.172;2023-12-20T11:44:42;15.93;;;2.97;;
20181;SDS011;10250;50.756;6.172;2023-12-20T11:46:44;14.40;;;2.77;;
20181;SDS011;10250;50.756;6.172;2023-12-20T11:48:44;18.63;;;3.17;;
20181;SDS011;10250;50.756;6.172;2023-12-20T11:50:45;11.03;;;2.73;;
20181;SDS011;10250;50.756;6.172;2023-12-20T11:52:46;13.60;;;2.83;;
20181;SDS011;10250;50.756;6.172;2023-12-20T11:54:47;21.50;;;3.30;;
20181;SDS011;10250;50.756;6.172;2023-12-20T11:56:48;15.17;;;2.90;;
20181;SDS011;10250;50.756;6.172;2023-12-20T11:58:49;17.43;;;2.73;;
20181;SDS011;10250;50.756;6.172;2023-12-20T12:00:49;18.20;;;3.23;;
20181;SDS011;10250;50.756;6.172;2023-12-20T12:02:54;15.13;;;3.17;;
20181;SDS011;10250;50.756;6.172;2023-12-20T12:04:56;15.20;;;3.03;;
20181;SDS011;10250;50.756;6.172;2023-12-20T12:06:58;14.90;;;3.20;;
20181;SDS011;10250;50.756;6.172;2023-12-20T12:08:59;13.73;;;2.90;;